createdAt,value
2018-07-20T00:00:04.910Z,27.80
2018-07-20T00:02:33.243Z,27.80
2018-07-20T00:05:01.647Z,27.80
2018-07-20T00:07:29.939Z,27.80
2018-07-20T00:09:58.407Z,27.70
2018-07-20T00:12:26.905Z,27.70
2018-07-20T00:14:55.211Z,27.70
2018-07-20T00:17:23.520Z,27.70
2018-07-20T00:19:51.908Z,27.70
2018-07-20T00:22:20.206Z,27.70
2018-07-20T00:24:48.660Z,27.70
2018-07-20T00:27:17.330Z,27.70
2018-07-20T00:29:45.648Z,27.70
2018-07-20T00:32:13.949Z,27.60
2018-07-20T00:34:42.309Z,27.60
2018-07-20T00:37:10.624Z,27.60
2018-07-20T00:39:38.966Z,27.60
2018-07-20T00:42:07.266Z,27.60
2018-07-20T00:44:35.711Z,27.50
2018-07-20T00:47:04.125Z,27.50
2018-07-20T00:49:32.567Z,27.40
2018-07-20T00:52:00.954Z,27.50
2018-07-20T00:54:29.304Z,27.40
2018-07-20T00:56:57.724Z,27.40
2018-07-20T00:59:26.131Z,27.40
2018-07-20T01:04:22.759Z,27.30
2018-07-20T01:06:51.282Z,27.30
2018-07-20T01:09:19.718Z,27.30
2018-07-20T01:11:48.027Z,27.20
2018-07-20T01:14:16.540Z,27.20
2018-07-20T01:16:44.992Z,27.10
2018-07-20T01:21:41.428Z,27.10
2018-07-20T01:24:09.779Z,27.10
2018-07-20T01:26:38.074Z,27.10
2018-07-20T01:29:06.459Z,27.00
2018-07-20T01:31:34.932Z,27.00
2018-07-20T01:36:31.325Z,27.00
2018-07-20T01:38:59.716Z,27.00
2018-07-20T01:41:28.026Z,27.00
2018-07-20T01:43:56.569Z,26.90
2018-07-20T01:46:24.970Z,26.90
2018-07-20T01:48:53.337Z,26.90
2018-07-20T01:51:21.780Z,26.80
2018-07-20T01:53:50.091Z,26.80
2018-07-20T01:56:18.627Z,26.80
2018-07-20T01:58:47.026Z,26.80
2018-07-20T02:01:15.386Z,26.70
2018-07-20T02:03:43.767Z,26.70
2018-07-20T02:06:12.084Z,26.70
2018-07-20T02:08:40.404Z,26.70
2018-07-20T02:11:08.723Z,26.70
2018-07-20T02:13:37.030Z,26.70
2018-07-20T02:16:05.528Z,26.70
2018-07-20T02:18:33.838Z,26.70
2018-07-20T02:21:02.390Z,26.60
2018-07-20T02:23:30.984Z,26.60
2018-07-20T02:25:59.481Z,26.60
2018-07-20T02:28:27.975Z,26.50
2018-07-20T02:30:56.379Z,26.50
2018-07-20T02:35:53.563Z,26.40
2018-07-20T02:38:21.953Z,26.40
2018-07-20T02:40:50.315Z,26.50
2018-07-20T02:43:18.646Z,26.40
2018-07-20T02:45:47.031Z,26.40
2018-07-20T02:48:15.616Z,26.40
2018-07-20T02:50:44.020Z,26.40
2018-07-20T02:53:12.354Z,26.40
2018-07-20T02:55:40.708Z,26.40
2018-07-20T02:58:09.241Z,26.30
2018-07-20T03:00:37.564Z,26.30
2018-07-20T03:05:34.143Z,26.20
2018-07-20T03:08:02.954Z,26.10
2018-07-20T03:10:31.489Z,26.10
2018-07-20T03:13:00.337Z,26.10
2018-07-20T03:15:28.931Z,26.10
2018-07-20T03:17:57.358Z,26.00
2018-07-20T03:20:26.013Z,26.00
2018-07-20T03:22:54.582Z,26.00
2018-07-20T03:25:23.215Z,26.00
2018-07-20T03:27:51.872Z,26.00
2018-07-20T03:30:20.211Z,26.00
2018-07-20T03:32:48.590Z,25.90
2018-07-20T03:35:16.913Z,25.90
2018-07-20T03:37:45.431Z,25.80
2018-07-20T03:40:13.843Z,25.90
2018-07-20T03:42:42.198Z,25.90
2018-07-20T03:45:10.695Z,25.80
2018-07-20T03:47:39.207Z,25.80
2018-07-20T03:50:07.916Z,25.80
2018-07-20T03:52:36.354Z,25.70
2018-07-20T03:55:04.881Z,25.80
2018-07-20T03:57:33.242Z,25.70
2018-07-20T04:00:01.732Z,25.70
2018-07-20T04:02:30.365Z,25.80
2018-07-20T04:04:58.982Z,25.80
2018-07-20T04:07:27.703Z,25.70
2018-07-20T04:09:56.205Z,25.70
2018-07-20T04:12:24.651Z,25.70
2018-07-20T04:14:53.070Z,25.70
2018-07-20T04:17:21.515Z,25.70
2018-07-20T04:19:49.911Z,25.60
2018-07-20T04:22:18.259Z,25.60
2018-07-20T04:24:46.590Z,25.60
2018-07-20T04:27:14.984Z,25.60
2018-07-20T04:29:43.345Z,25.60
2018-07-20T04:32:12.236Z,25.60
2018-07-20T04:34:40.755Z,25.50
2018-07-20T04:37:09.135Z,25.60
2018-07-20T04:39:37.461Z,25.60
2018-07-20T04:42:06.139Z,25.60
2018-07-20T04:44:34.454Z,25.60
2018-07-20T04:49:30.856Z,25.60
2018-07-20T04:52:02.240Z,25.60
2018-07-20T04:54:30.706Z,25.60
2018-07-20T04:57:05.635Z,25.60
2018-07-20T04:59:34.049Z,25.60
2018-07-20T05:02:02.547Z,25.60
2018-07-20T05:04:30.898Z,25.60
2018-07-20T05:06:59.439Z,25.60
2018-07-20T05:09:28.063Z,25.60
2018-07-20T05:11:56.516Z,25.60
2018-07-20T05:14:25.102Z,25.70
2018-07-20T05:16:53.559Z,25.70
2018-07-20T05:19:21.997Z,25.70
2018-07-20T05:21:50.406Z,25.70
2018-07-20T05:24:18.803Z,25.70
2018-07-20T05:26:47.098Z,25.70
2018-07-20T05:29:15.479Z,25.70
2018-07-20T05:31:43.893Z,25.70
2018-07-20T05:34:12.512Z,25.70
2018-07-20T05:36:40.823Z,25.70
2018-07-20T05:39:10.240Z,25.80
2018-07-20T05:41:38.528Z,25.80
2018-07-20T05:44:07.588Z,25.90
2018-07-20T05:46:36.288Z,25.90
2018-07-20T05:49:04.689Z,25.90
2018-07-20T05:51:33.106Z,26.00
2018-07-20T05:54:01.478Z,26.00
2018-07-20T05:56:29.836Z,26.00
2018-07-20T05:58:58.304Z,26.00
2018-07-20T06:01:26.647Z,26.10
2018-07-20T06:03:55.052Z,26.10
2018-07-20T06:06:23.485Z,26.10
2018-07-20T06:08:51.875Z,26.20
2018-07-20T06:11:20.215Z,26.20
2018-07-20T06:13:48.668Z,26.20
2018-07-20T06:16:16.995Z,26.20
2018-07-20T06:18:45.361Z,26.30
2018-07-20T06:21:13.642Z,26.30
2018-07-20T06:23:42.075Z,26.40
2018-07-20T06:26:10.482Z,26.40
2018-07-20T06:28:38.846Z,26.40
2018-07-20T06:31:07.208Z,26.50
2018-07-20T06:33:35.566Z,26.50
2018-07-20T06:36:04.043Z,26.50
2018-07-20T06:38:32.519Z,26.60
2018-07-20T06:41:00.837Z,26.60
2018-07-20T06:43:29.399Z,26.70
2018-07-20T06:45:57.749Z,26.70
2018-07-20T06:48:26.234Z,26.80
2018-07-20T06:50:54.630Z,26.90
2018-07-20T06:53:23.096Z,26.90
2018-07-20T06:55:51.514Z,27.00
2018-07-20T06:58:19.854Z,27.00
2018-07-20T07:00:48.211Z,27.10
2018-07-20T07:03:16.558Z,27.10
2018-07-20T07:05:44.884Z,27.20
2018-07-20T07:08:13.258Z,27.30
2018-07-20T07:10:41.803Z,27.30
2018-07-20T07:13:10.440Z,27.40
2018-07-20T07:15:38.772Z,27.50
2018-07-20T07:18:07.244Z,27.50
2018-07-20T07:20:35.579Z,27.60
2018-07-20T07:25:32.184Z,27.70
2018-07-20T07:28:00.555Z,27.80
2018-07-20T07:30:28.904Z,27.80
2018-07-20T07:32:57.376Z,27.90
2018-07-20T07:35:25.852Z,27.90
2018-07-20T07:37:54.760Z,28.00
2018-07-20T07:40:23.323Z,28.00
2018-07-20T07:42:52.558Z,28.10
2018-07-20T07:45:20.945Z,28.10
2018-07-20T07:47:49.414Z,28.20
2018-07-20T07:52:46.052Z,28.30
2018-07-20T07:55:14.449Z,28.30
2018-07-20T07:57:42.770Z,28.40
2018-07-20T08:00:11.301Z,28.40
2018-07-20T08:02:39.899Z,28.50
2018-07-20T08:05:08.457Z,28.60
2018-07-20T08:07:36.903Z,28.60
2018-07-20T08:10:05.498Z,28.70
2018-07-20T08:12:33.777Z,28.70
2018-07-20T08:15:02.247Z,28.80
2018-07-20T08:17:31.079Z,28.90
2018-07-20T08:19:59.807Z,28.90
2018-07-20T08:22:28.206Z,29.10
2018-07-20T08:24:56.683Z,29.10
2018-07-20T08:27:25.166Z,29.20
2018-07-20T08:29:53.946Z,29.30
2018-07-20T08:32:22.360Z,29.30
2018-07-20T08:34:50.854Z,29.40
2018-07-20T08:37:19.206Z,29.50
2018-07-20T08:39:47.650Z,29.60
2018-07-20T08:42:15.958Z,29.70
2018-07-20T08:44:44.518Z,29.70
2018-07-20T08:47:12.967Z,29.80
2018-07-20T08:49:41.450Z,29.90
2018-07-20T08:52:10.142Z,29.90
2018-07-20T08:54:38.557Z,29.90
2018-07-20T08:57:06.911Z,30.00
2018-07-20T08:59:35.760Z,30.00
2018-07-20T09:02:04.461Z,30.20
2018-07-20T09:04:32.900Z,30.20
2018-07-20T09:07:01.285Z,30.30
2018-07-20T09:09:29.864Z,30.40
2018-07-20T09:11:58.344Z,30.50
2018-07-20T09:14:27.413Z,30.60
2018-07-20T09:16:55.976Z,30.70
2018-07-20T09:19:24.696Z,30.90
2018-07-20T09:21:53.135Z,31.00
2018-07-20T09:24:21.935Z,31.20
2018-07-20T09:26:50.343Z,31.30
2018-07-20T09:29:19.377Z,31.50
2018-07-20T09:31:47.787Z,31.70
2018-07-20T09:34:16.256Z,31.90
2018-07-20T09:36:44.636Z,32.10
2018-07-20T09:39:13.093Z,32.30
2018-07-20T09:41:41.814Z,32.40
2018-07-20T09:44:10.318Z,32.60
2018-07-20T09:46:38.775Z,32.70
2018-07-20T09:49:07.134Z,32.90
2018-07-20T09:51:35.691Z,33.00
2018-07-20T09:54:04.459Z,33.20
2018-07-20T09:56:33.180Z,33.30
2018-07-20T09:59:01.953Z,33.50
2018-07-20T10:01:30.321Z,33.60
2018-07-20T10:03:58.887Z,33.80
2018-07-20T10:06:27.714Z,33.90
2018-07-20T10:08:56.148Z,34.00
2018-07-20T10:11:24.789Z,34.20
2018-07-20T10:16:21.194Z,34.40
2018-07-20T10:18:49.718Z,34.50
2018-07-20T10:21:18.124Z,34.70
2018-07-20T10:23:46.472Z,34.80
2018-07-20T10:26:14.957Z,34.80
2018-07-20T10:28:43.280Z,34.90
2018-07-20T10:31:11.899Z,35.00
2018-07-20T10:33:40.309Z,35.10
2018-07-20T10:36:08.898Z,35.20
2018-07-20T10:38:37.402Z,35.20
2018-07-20T10:41:05.922Z,35.40
2018-07-20T10:43:34.654Z,35.40
2018-07-20T10:46:03.031Z,35.50
2018-07-20T10:48:31.424Z,35.60
2018-07-20T10:51:00.059Z,35.80
2018-07-20T10:53:31.005Z,35.90
2018-07-20T10:55:59.782Z,36.10
2018-07-20T10:58:28.353Z,36.10
2018-07-20T11:00:56.887Z,36.20
2018-07-20T11:03:25.504Z,36.40
2018-07-20T11:05:53.897Z,36.50
2018-07-20T11:08:22.222Z,36.60
2018-07-20T11:10:50.784Z,36.70
2018-07-20T11:13:19.082Z,36.90
2018-07-20T11:15:47.603Z,36.90
2018-07-20T11:18:15.957Z,37.00
2018-07-20T11:20:44.569Z,37.20
2018-07-20T11:23:12.922Z,37.20
2018-07-20T11:25:41.396Z,37.20
2018-07-20T11:28:09.876Z,37.30
2018-07-20T11:30:38.231Z,37.20
2018-07-20T11:33:06.668Z,37.30
2018-07-20T11:38:03.184Z,37.40
2018-07-20T11:40:31.547Z,37.40
2018-07-20T11:42:59.956Z,37.50
2018-07-20T11:45:28.304Z,37.60
2018-07-20T11:47:56.622Z,37.70
2018-07-20T11:50:25.267Z,37.70
2018-07-20T11:52:53.870Z,37.70
2018-07-20T11:55:22.262Z,37.70
2018-07-20T11:57:50.564Z,37.70
2018-07-20T12:00:18.881Z,37.70
2018-07-20T12:02:47.202Z,37.70
2018-07-20T12:05:15.758Z,37.70
2018-07-20T12:07:44.170Z,37.70
2018-07-20T12:10:12.490Z,37.80
2018-07-20T12:12:40.884Z,37.80
2018-07-20T12:15:09.228Z,37.80
2018-07-20T12:17:37.547Z,37.90
2018-07-20T12:20:05.887Z,38.10
2018-07-20T12:22:34.180Z,38.20
2018-07-20T12:25:02.725Z,38.40
2018-07-20T12:27:31.069Z,38.70
2018-07-20T12:29:59.507Z,39.00
2018-07-20T12:32:27.851Z,39.00
2018-07-20T12:34:56.183Z,39.10
2018-07-20T12:37:24.551Z,39.10
2018-07-20T12:39:52.964Z,39.30
2018-07-20T12:42:21.516Z,39.40
2018-07-20T12:44:49.806Z,39.60
2018-07-20T12:47:18.475Z,39.60
2018-07-20T12:49:46.889Z,39.70
2018-07-20T12:52:15.408Z,39.80
2018-07-20T12:54:44.163Z,39.90
2018-07-20T12:57:12.578Z,40.00
2018-07-20T12:59:41.686Z,40.00
2018-07-20T13:02:10.020Z,40.00
2018-07-20T13:04:38.364Z,40.00
2018-07-20T13:07:06.824Z,40.20
2018-07-20T13:09:35.379Z,40.40
2018-07-20T13:12:03.788Z,40.50
2018-07-20T13:14:32.157Z,40.70
2018-07-20T13:17:00.638Z,40.80
2018-07-20T13:19:29.063Z,41.00
2018-07-20T13:21:57.622Z,41.10
2018-07-20T13:24:26.131Z,41.30
2018-07-20T13:26:54.523Z,41.30
2018-07-20T13:29:22.915Z,41.40
2018-07-20T13:31:51.283Z,41.40
2018-07-20T13:34:19.639Z,41.30
2018-07-20T13:36:48.035Z,41.00
2018-07-20T13:39:16.483Z,40.70
2018-07-20T13:41:44.903Z,40.50
2018-07-20T13:44:13.303Z,40.30
2018-07-20T13:46:41.754Z,40.30
2018-07-20T13:49:10.078Z,40.50
2018-07-20T13:51:38.440Z,40.80
2018-07-20T13:54:06.936Z,41.10
2018-07-20T13:56:35.266Z,41.30
2018-07-20T13:59:03.920Z,41.60
2018-07-20T14:01:32.274Z,41.80
2018-07-20T14:04:00.771Z,42.10
2018-07-20T14:06:29.172Z,42.30
2018-07-20T14:08:57.687Z,42.50
2018-07-20T14:11:26.342Z,42.80
2018-07-20T14:13:54.699Z,43.10
2018-07-20T14:16:23.095Z,43.20
2018-07-20T14:18:51.470Z,43.40
2018-07-20T14:21:19.842Z,43.50
2018-07-20T14:23:48.233Z,43.70
2018-07-20T14:26:16.691Z,43.80
2018-07-20T14:28:44.995Z,44.00
2018-07-20T14:31:13.364Z,44.10
2018-07-20T14:33:41.917Z,44.10
2018-07-20T14:36:10.263Z,44.10
2018-07-20T14:38:38.600Z,44.10
2018-07-20T14:41:07.063Z,43.90
2018-07-20T14:43:35.410Z,43.60
2018-07-20T14:46:03.954Z,43.20
2018-07-20T14:48:32.323Z,42.80
2018-07-20T14:53:28.803Z,41.90
2018-07-20T14:55:57.222Z,41.50
2018-07-20T14:58:25.842Z,41.00
2018-07-20T15:00:54.791Z,40.50
2018-07-20T15:03:23.191Z,40.20
2018-07-20T15:05:51.777Z,39.70
2018-07-20T15:08:20.167Z,39.30
2018-07-20T15:10:48.710Z,39.00
2018-07-20T15:13:17.479Z,38.70
2018-07-20T15:15:45.922Z,38.30
2018-07-20T15:18:14.519Z,38.00
2018-07-20T15:20:43.008Z,37.70
2018-07-20T15:23:11.525Z,37.40
2018-07-20T15:25:40.118Z,37.10
2018-07-20T15:28:08.454Z,36.90
2018-07-20T15:30:36.818Z,36.70
2018-07-20T15:33:05.143Z,36.50
2018-07-20T15:35:33.523Z,36.30
2018-07-20T15:38:02.171Z,36.20
2018-07-20T15:40:30.572Z,36.00
2018-07-20T15:42:58.980Z,35.90
2018-07-20T15:45:27.469Z,35.70
2018-07-20T15:47:56.002Z,35.20
2018-07-20T15:53:36.251Z,35.40
2018-07-20T15:55:20.806Z,35.30
2018-07-20T15:57:49.192Z,35.10
2018-07-20T16:00:17.654Z,35.00
2018-07-20T16:05:14.037Z,34.80
2018-07-20T16:07:42.382Z,34.70
2018-07-20T16:10:10.696Z,34.60
2018-07-20T16:12:39.143Z,34.50
2018-07-20T16:15:07.513Z,34.40
2018-07-20T16:17:35.957Z,34.30
2018-07-20T16:20:04.331Z,34.30
2018-07-20T16:22:32.714Z,34.20
2018-07-20T16:25:01.055Z,34.20
2018-07-20T16:27:29.480Z,34.10
2018-07-20T16:29:57.902Z,34.10
2018-07-20T16:32:26.311Z,34.00
2018-07-20T16:34:54.665Z,34.00
2018-07-20T16:37:23.403Z,33.90
2018-07-20T16:39:51.997Z,33.80
2018-07-20T16:42:20.556Z,33.80
2018-07-20T16:44:49.454Z,33.80
2018-07-20T16:47:17.856Z,33.80
2018-07-20T16:49:46.218Z,33.70
2018-07-20T16:52:14.688Z,33.70
2018-07-20T16:54:43.206Z,33.70
2018-07-20T16:57:11.634Z,33.70
2018-07-20T16:59:40.187Z,33.60
2018-07-20T17:02:08.950Z,33.60
2018-07-20T17:04:37.371Z,33.60
2018-07-20T17:07:05.945Z,33.50
2018-07-20T17:09:34.282Z,33.50
2018-07-20T17:12:02.711Z,33.50
2018-07-20T17:14:31.071Z,33.40
2018-07-20T17:16:59.644Z,33.40
2018-07-20T17:19:27.993Z,33.30
2018-07-20T17:21:56.400Z,33.30
2018-07-20T17:24:24.734Z,33.30
2018-07-20T17:26:53.156Z,33.30
2018-07-20T17:29:21.721Z,33.20
2018-07-20T17:31:50.158Z,33.20
2018-07-20T17:34:18.515Z,33.20
2018-07-20T17:36:46.865Z,33.30
2018-07-20T17:39:15.401Z,33.30
2018-07-20T17:41:43.885Z,33.30
2018-07-20T17:44:12.363Z,33.30
2018-07-20T17:46:40.866Z,33.20
2018-07-20T17:49:09.415Z,33.20
2018-07-20T17:51:37.718Z,33.20
2018-07-20T17:54:06.085Z,33.20
2018-07-20T17:56:34.412Z,33.20
2018-07-20T17:59:02.698Z,33.20
2018-07-20T18:01:31.006Z,33.20
2018-07-20T18:03:59.346Z,33.10
2018-07-20T18:06:27.690Z,33.10
2018-07-20T18:08:57.239Z,33.10
2018-07-20T18:11:26.062Z,33.10
2018-07-20T18:13:54.751Z,33.00
2018-07-20T18:16:23.279Z,33.00
2018-07-20T18:18:51.924Z,33.00
2018-07-20T18:21:20.394Z,33.00
2018-07-20T18:23:48.865Z,32.90
2018-07-20T18:26:17.370Z,32.90
2018-07-20T18:28:45.752Z,32.90
2018-07-20T18:31:14.116Z,32.90
2018-07-20T18:33:42.507Z,32.90
2018-07-20T18:36:10.792Z,32.80
2018-07-20T18:38:39.090Z,32.80
2018-07-20T18:41:07.539Z,32.80
2018-07-20T18:43:35.972Z,32.80
2018-07-20T18:46:04.376Z,32.70
2018-07-20T18:48:32.718Z,32.70
2018-07-20T18:51:01.084Z,32.70
2018-07-20T18:53:29.462Z,32.70
2018-07-20T18:55:57.894Z,32.70
2018-07-20T18:58:26.266Z,32.60
2018-07-20T19:00:54.729Z,32.70
2018-07-20T19:03:23.476Z,32.60
2018-07-20T19:05:52.027Z,32.60
2018-07-20T19:08:20.380Z,32.60
2018-07-20T19:10:48.759Z,32.60
2018-07-20T19:13:17.163Z,32.60
2018-07-20T19:15:45.553Z,32.60
2018-07-20T19:18:13.867Z,32.50
2018-07-20T19:20:42.240Z,32.60
2018-07-20T19:23:10.560Z,32.50
2018-07-20T19:25:38.995Z,32.50
2018-07-20T19:28:07.385Z,32.50
2018-07-20T19:30:35.855Z,32.50
2018-07-20T19:33:04.213Z,32.50
2018-07-20T19:35:32.627Z,32.40
2018-07-20T19:38:01.076Z,32.40
2018-07-20T19:40:29.555Z,32.40
2018-07-20T19:42:57.972Z,32.40
2018-07-20T19:45:26.398Z,32.40
2018-07-20T19:47:55.064Z,32.30
2018-07-20T19:50:23.799Z,32.30
2018-07-20T19:52:52.179Z,32.20
2018-07-20T19:55:20.550Z,32.20
2018-07-20T19:57:49.032Z,32.20
2018-07-20T20:00:17.799Z,32.20
2018-07-20T20:02:46.231Z,32.10
2018-07-20T20:05:14.782Z,32.10
2018-07-20T20:07:43.177Z,32.10
2018-07-20T20:10:11.580Z,32.00
2018-07-20T20:12:39.910Z,32.00
2018-07-20T20:15:08.564Z,32.00
2018-07-20T20:17:36.936Z,32.00
2018-07-20T20:20:08.300Z,31.90
2018-07-20T20:22:36.866Z,31.90
2018-07-20T20:25:05.311Z,31.80
2018-07-20T20:27:33.920Z,31.80
2018-07-20T20:30:02.455Z,31.80
2018-07-20T20:32:30.995Z,31.70
2018-07-20T20:34:59.607Z,31.70
2018-07-20T20:37:28.026Z,31.60
2018-07-20T20:39:56.572Z,31.60
2018-07-20T20:44:53.425Z,31.60
2018-07-20T20:47:22.717Z,31.60
2018-07-20T20:49:51.214Z,31.50
2018-07-20T20:52:19.995Z,31.50
2018-07-20T20:54:48.424Z,31.40
2018-07-20T20:57:16.824Z,31.40
2018-07-20T20:59:45.406Z,31.30
2018-07-20T21:02:13.757Z,31.30
2018-07-20T21:04:42.183Z,31.30
2018-07-20T21:07:10.515Z,31.30
2018-07-20T21:09:39.172Z,31.30
2018-07-20T21:12:07.744Z,31.20
2018-07-20T21:14:36.023Z,31.20
2018-07-20T21:17:04.476Z,31.20
2018-07-20T21:19:32.912Z,31.20
2018-07-20T21:22:01.561Z,31.20
2018-07-20T21:24:30.123Z,31.10
2018-07-20T21:26:59.156Z,31.10
2018-07-20T21:29:27.723Z,31.00
2018-07-20T21:31:56.192Z,31.00
2018-07-20T21:34:24.584Z,30.90
2018-07-20T21:36:52.991Z,30.90
2018-07-20T21:39:21.439Z,30.80
2018-07-20T21:41:49.847Z,30.80
2018-07-20T21:44:18.199Z,30.80
2018-07-20T21:46:46.579Z,30.70
2018-07-20T21:49:15.142Z,30.70
2018-07-20T21:51:43.670Z,30.60
2018-07-20T21:54:12.038Z,30.60
2018-07-20T21:56:40.415Z,30.60
2018-07-20T21:59:08.732Z,30.50
2018-07-20T22:01:37.040Z,30.50
2018-07-20T22:04:05.393Z,30.50
2018-07-20T22:06:33.711Z,30.50
2018-07-20T22:09:02.109Z,30.50
2018-07-20T22:11:30.525Z,30.40
2018-07-20T22:13:58.994Z,30.40
2018-07-20T22:16:27.413Z,30.40
2018-07-20T22:18:55.796Z,30.40
2018-07-20T22:21:24.133Z,30.30
2018-07-20T22:26:20.632Z,30.30
2018-07-20T22:28:48.977Z,30.30
2018-07-20T22:31:17.359Z,30.30
2018-07-20T22:33:45.659Z,30.30
2018-07-20T22:36:14.078Z,30.30
2018-07-20T22:38:42.431Z,30.20
2018-07-20T22:41:10.781Z,30.20
2018-07-20T22:43:39.079Z,30.20
2018-07-20T22:46:07.901Z,30.10
2018-07-20T22:48:36.355Z,30.10
2018-07-20T22:51:04.796Z,30.10
2018-07-20T22:53:33.230Z,30.10
2018-07-20T22:56:01.602Z,30.10
2018-07-20T22:58:30.056Z,30.10
2018-07-20T23:00:58.540Z,30.10
2018-07-20T23:03:27.232Z,30.00
2018-07-20T23:05:55.620Z,30.00
2018-07-20T23:08:23.966Z,30.00
2018-07-20T23:10:52.311Z,30.00
2018-07-20T23:13:20.709Z,29.90
2018-07-20T23:15:49.094Z,29.90
2018-07-20T23:18:17.388Z,29.90
2018-07-20T23:20:45.749Z,29.80
2018-07-20T23:23:14.187Z,29.80
2018-07-20T23:25:42.719Z,29.70
2018-07-20T23:28:11.136Z,29.70
2018-07-20T23:30:39.479Z,29.70
2018-07-20T23:33:07.944Z,29.70
2018-07-20T23:35:36.484Z,29.60
2018-07-20T23:38:05.043Z,29.60
2018-07-20T23:40:33.518Z,29.60
2018-07-20T23:43:01.861Z,29.60
2018-07-20T23:45:30.298Z,29.60
2018-07-20T23:47:58.836Z,29.50
2018-07-20T23:50:27.287Z,29.50
2018-07-20T23:52:55.989Z,29.50
2018-07-20T23:55:24.513Z,29.40
2018-07-20T23:57:52.848Z,29.40
